ซานฟรานซิสโก, CA

07:19 PM PST วัน มกราคม 26, 2015 (GMT -0800)
SOMA - Near Van Ness | Change Station
CLOSE
Current Station
Personal Weather Stations
Location: San Francisco, CA
Elevation: 49 ft
Nearby Weather Stations

Elev 49 ft 37.77 °N, 122.42 °W | Updated 36 seconds ago

มีเมฆคลุมเป็นส่วนใหญ่
มีเมฆคลุมเป็นส่วนใหญ่
61.4 ฟาเรนไฮน์
Feels Like 61.4 ฟาเรนไฮน์
N
0.0
ลม ความผันแปร ลม from ทางทิศตะวันออก
Gusts 0.0 mph

วันนี้
High -- | Low -- ฟาเรนไฮน์
--% Chance of Precip.
Yesterday
High -- | Low -- ฟาเรนไฮน์
Precip. -- นิ้ว
7:18 AM 5:26 PM
เดือนเสี้ยว, 49% visible
ความดัน 29.98 นิ้ว
ทัศนวิสัย 10.0 ไมล์
เมฆ มีเมฆคลุมไปทั่ว 20000 ft
อุณหภูมิที่อากาศอาจจับตัวเป็นหยาดน้ำค้าง 49 ฟาเรนไฮน์
ความชื้น 63%
Rainfall 0.00 นิ้ว
Snow Depth Not available.
UV 0 out of 12
Pollen 6.10 out of 12
Air Quality Not available.
Flu Activity Not available.
METAR KSFO 270256Z 00000KT 10SM OVC200 16/08 A2998 RMK AO2 SLP151 T01560083 53003

More Conditions Fewer Conditions

ความดัน 29.98 นิ้ว
ทัศนวิสัย 10.0 ไมล์
เมฆ มีเมฆคลุมไปทั่ว 20000 ft
อุณหภูมิที่อากาศอาจจับตัวเป็นหยาดน้ำค้าง 49 ฟาเรนไฮน์
ความชื้น 63%
Rainfall 0.00 นิ้ว
Snow Depth Not available.
UV 0 out of 12
Pollen 6.10 out of 12
Air Quality Not available.
Flu Activity Not available.
METAR KSFO 270256Z 00000KT 10SM OVC200 16/08 A2998 RMK AO2 SLP151 T01560083 53003

More Conditions Fewer Conditions

10-Day Weather Forecast

Almanac

ดาราศาสตร์

Jan. 26, 2015 Rise Set
Actual Time
Civil Twilight
Nautical Twilight
Astronomical Twilight
Moon
Length Of Visible Light
ความยาวของวัน
Tomorrow will be .
, % of the Moon is Illuminated

Today's Extremes

State Highs State Lows

Community

WunderPhotos

Upload Photos

1,790,495 photos uploaded!

WunderBlogs® & News

Nearby

Air Quality

  Air Quality AQ Index Pollutant
Not available.

Snow Depth

Station Depth Elevation

Earthquake Activity

City Distance Mag. Time & Date
Minimum magnitude displayed is 2.5.

Coastal Water Temperatures

สถานที่ อุณหภูมิ

Nearby Weather Stations